Time;durP1;ratioP1;P1;durP2;ratioP2;P2;SDS_P1;SDS_P2;PMS_P1;PMS_P2;Temp;Humidity;BMP_temperature;BMP_pressure;BME280_temperature;BME280_humidity;BME280_pressure;Samples;Min_cycle;Max_cycle;Signal;HPM_P1;HPM_P2
2022/10/19 00:02:08;;;;;;;66.80;20.25;;;;;;;14.79;100.00;100843.56;12219608;19;20082;-80
2022/10/19 00:06:25;;;;;;;60.53;18.85;;;;;;;14.83;100.00;100841.94;12195875;19;20023;-80
2022/10/19 00:10:27;;;;;;;65.38;20.48;;;;;;;14.89;100.00;100840.09;12218179;19;20051;-81
2022/10/19 00:14:29;;;;;;;61.38;18.48;;;;;;;14.95;100.00;100842.69;12214499;19;20006;-81
2022/10/19 00:18:30;;;;;;;64.00;19.20;;;;;;;14.95;100.00;100836.31;12201609;19;20014;-79
2022/10/19 00:22:32;;;;;;;65.75;18.08;;;;;;;14.98;100.00;100827.47;12224674;19;20038;-80
2022/10/19 00:26:35;;;;;;;53.88;17.60;;;;;;;14.99;100.00;100830.00;12225046;19;20791;-80
2022/10/19 00:30:37;;;;;;;44.60;15.15;;;;;;;14.98;100.00;100833.84;12199181;19;20018;-81
2022/10/19 00:34:39;;;;;;;41.95;16.08;;;;;;;14.97;100.00;100823.03;12216697;19;20022;-81
2022/10/19 00:38:41;;;;;;;38.70;13.85;;;;;;;14.94;100.00;100820.75;12219506;19;20022;-80
2022/10/19 00:42:43;;;;;;;36.65;12.75;;;;;;;14.87;100.00;100812.59;12196709;19;20485;-79
2022/10/19 00:46:50;;;;;;;42.10;13.00;;;;;;;14.81;100.00;100816.38;12217984;19;20131;-79
2022/10/19 00:50:55;;;;;;;41.85;12.70;;;;;;;14.78;100.00;100822.44;12210201;19;20035;-82
2022/10/19 00:54:58;;;;;;;43.20;13.57;;;;;;;14.77;100.00;100816.06;12192595;19;20026;-79
2022/10/19 00:59:03;;;;;;;40.85;14.07;;;;;;;14.82;100.00;100812.53;12212662;19;20006;-80
2022/10/19 01:03:06;;;;;;;32.95;11.63;;;;;;;14.88;100.00;100811.50;12191687;19;20014;-79
2022/10/19 01:07:09;;;;;;;33.17;11.38;;;;;;;14.98;100.00;100808.88;12218719;19;20010;-79
2022/10/19 01:11:25;;;;;;;40.80;11.95;;;;;;;15.08;100.00;100804.56;12217293;19;20050;-80
2022/10/19 01:15:56;;;;;;;36.20;11.95;;;;;;;15.14;100.00;100798.00;12195033;19;20007;-80
2022/10/19 01:20:07;;;;;;;48.47;12.43;;;;;;;15.20;100.00;100796.97;12220272;19;19998;-80
2022/10/19 01:24:36;;;;;;;38.88;12.05;;;;;;;15.21;100.00;100802.28;12196231;19;20055;-79
2022/10/19 01:28:53;;;;;;;36.97;11.90;;;;;;;15.22;100.00;100795.63;12218108;19;20093;-79
2022/10/19 01:33:08;;;;;;;41.28;12.02;;;;;;;15.27;100.00;100797.63;12214479;19;20081;-80
2022/10/19 01:37:20;;;;;;;39.30;12.07;;;;;;;15.29;100.00;100795.44;12193872;19;20034;-79
2022/10/19 01:41:36;;;;;;;33.00;10.70;;;;;;;15.28;100.00;100785.44;12220377;19;20038;-80
2022/10/19 01:46:19;;;;;;;31.58;11.05;;;;;;;15.29;100.00;100784.34;12191873;19;20031;-79
2022/10/19 01:50:30;;;;;;;37.08;11.32;;;;;;;15.27;100.00;100781.81;12213586;19;20019;-80
2022/10/19 01:54:39;;;;;;;40.85;12.43;;;;;;;15.28;100.00;100777.94;12192994;19;20492;-80
2022/10/19 01:58:42;;;;;;;35.47;11.02;;;;;;;15.29;100.00;100778.78;12216741;19;20007;-80
2022/10/19 02:02:47;;;;;;;37.58;9.98;;;;;;;15.31;100.00;100776.56;12214746;19;20579;-80
2022/10/19 02:06:54;;;;;;;42.53;12.15;;;;;;;15.30;100.00;100768.53;12188483;19;20014;-81
2022/10/19 02:10:57;;;;;;;36.55;10.18;;;;;;;15.34;100.00;100773.28;12218807;19;20002;-80
2022/10/19 02:15:05;;;;;;;40.33;10.77;;;;;;;15.36;100.00;100776.66;12214727;19;20025;-79
2022/10/19 02:19:08;;;;;;;33.80;11.77;;;;;;;15.37;100.00;100775.53;12191361;19;20022;-79
2022/10/19 02:23:12;;;;;;;36.70;10.70;;;;;;;15.40;100.00;100769.47;12210846;19;20043;-80
2022/10/19 02:27:14;;;;;;;40.67;12.40;;;;;;;15.43;100.00;100765.34;12195173;19;20023;-79
2022/10/19 02:31:16;;;;;;;36.67;10.80;;;;;;;15.44;100.00;100764.25;12215676;19;20010;-80
2022/10/19 02:35:18;;;;;;;36.23;10.83;;;;;;;15.45;100.00;100765.94;12216113;19;20014;-80
2022/10/19 02:39:20;;;;;;;37.88;11.55;;;;;;;15.46;100.00;100767.59;12194414;19;20010;-80
2022/10/19 02:43:24;;;;;;;45.95;12.18;;;;;;;15.45;100.00;100755.66;12211688;19;20028;-79
2022/10/19 02:47:31;;;;;;;47.28;12.95;;;;;;;15.44;100.00;100744.81;12214829;19;20015;-79
2022/10/19 02:51:36;;;;;;;54.25;13.43;;;;;;;15.41;100.00;100760.06;12188767;19;20043;-79
2022/10/19 02:55:38;;;;;;;42.17;13.25;;;;;;;15.39;100.00;100751.13;12214989;19;20014;-80
2022/10/19 02:59:42;;;;;;;55.60;14.07;;;;;;;15.40;100.00;100751.97;12216026;19;20078;-81
2022/10/19 03:03:45;;;;;;;44.78;13.40;;;;;;;15.37;100.00;100753.31;12193315;19;20010;-79
2022/10/19 03:07:46;;;;;;;45.20;12.50;;;;;;;15.39;100.00;100758.63;12208761;19;20538;-79
2022/10/19 03:11:48;;;;;;;44.60;11.65;;;;;;;15.33;100.00;100754.94;12211025;19;20038;-80
2022/10/19 03:15:50;;;;;;;38.20;11.50;;;;;;;15.32;100.00;100756.06;12197284;19;20010;-80
2022/10/19 03:19:51;;;;;;;40.13;12.10;;;;;;;15.32;100.00;100755.19;12224664;19;20018;-80
2022/10/19 03:23:53;;;;;;;33.05;10.65;;;;;;;15.32;100.00;100744.97;12225163;19;20015;-80
2022/10/19 03:27:55;;;;;;;28.85;10.15;;;;;;;15.33;100.00;100743.84;12201694;19;20038;-80
2022/10/19 03:36:39;;;;;;;34.00;10.52;;;;;;;15.34;100.00;100739.13;12199934;19;20022;-80
2022/10/19 03:40:41;;;;;;;34.80;10.63;;;;;;;15.32;100.00;100753.28;12224812;19;20010;-80
2022/10/19 03:44:42;;;;;;;27.80;9.40;;;;;;;15.35;100.00;100751.91;12222930;19;20025;-81
2022/10/19 03:48:44;;;;;;;27.95;10.05;;;;;;;15.32;100.00;100746.88;12203238;19;20062;-80
2022/10/19 03:52:48;;;;;;;40.30;10.80;;;;;;;15.35;100.00;100749.13;12226798;19;20007;-79
2022/10/19 03:56:50;;;;;;;28.58;9.98;;;;;;;15.33;100.00;100746.63;12226952;19;20010;-79
2022/10/19 04:00:51;;;;;;;28.25;10.40;;;;;;;15.32;100.00;100756.06;12205638;19;20006;-80
2022/10/19 04:04:53;;;;;;;30.15;9.70;;;;;;;15.30;100.00;100752.69;12224694;19;20116;-80
2022/10/19 04:08:55;;;;;;;24.52;9.05;;;;;;;15.34;100.00;100742.75;12236437;19;20010;-80
2022/10/19 04:13:16;;;;;;;19.13;8.95;;;;;;;15.36;100.00;100735.00;12256815;19;19999;-81
2022/10/19 04:17:18;;;;;;;20.10;8.02;;;;;;;15.34;100.00;100737.19;12266604;19;20046;-81
2022/10/19 04:21:24;;;;;;;21.15;9.05;;;;;;;15.31;100.00;100726.59;12219806;19;20006;-80
2022/10/19 04:25:27;;;;;;;19.65;9.15;;;;;;;15.26;100.00;100727.38;12220173;19;20015;-80
2022/10/19 04:29:29;;;;;;;20.67;8.55;;;;;;;15.24;100.00;100720.41;12219679;19;20424;-80
2022/10/19 04:33:32;;;;;;;23.05;9.73;;;;;;;15.17;100.00;100737.28;12194760;19;20014;-81
2022/10/19 04:37:34;;;;;;;;;;;;;;;15.10;100.00;100739.38;12217333;19;20034;-81
2022/10/19 04:41:37;;;;;;;19.38;9.45;;;;;;;15.11;100.00;100731.88;12217145;19;19918;-80
2022/10/19 04:45:38;;;;;;;23.92;10.75;;;;;;;15.09;100.00;100739.66;12190523;19;20007;-80
2022/10/19 04:49:40;;;;;;;17.02;8.70;;;;;;;15.12;100.00;100745.53;12217456;19;20054;-80
2022/10/19 04:53:43;;;;;;;18.75;9.38;;;;;;;15.09;100.00;100743.25;12215524;19;20499;-80
2022/10/19 04:57:44;;;;;;;28.02;10.30;;;;;;;15.13;100.00;100741.63;12194236;19;20010;-81
2022/10/19 05:01:46;;;;;;;23.42;9.68;;;;;;;15.16;100.00;100740.28;12214440;19;19998;-80
2022/10/19 05:05:48;;;;;;;24.77;10.15;;;;;;;15.18;100.00;100743.66;12213919;19;20026;-79
2022/10/19 05:09:49;;;;;;;21.80;10.35;;;;;;;15.21;100.00;100734.81;12186450;19;20030;-80
2022/10/19 05:13:51;;;;;;;23.80;9.57;;;;;;;15.25;100.00;100734.03;12200292;19;20010;-78
2022/10/19 05:17:53;;;;;;;34.08;13.30;;;;;;;15.23;100.00;100729.84;12190721;19;20011;-79
2022/10/19 05:21:55;;;;;;;37.42;13.38;;;;;;;15.18;100.00;100727.84;12193882;19;20011;-77
2022/10/19 05:26:16;;;;;;;38.47;14.20;;;;;;;15.16;100.00;100729.19;12204889;19;20002;-79
2022/10/19 05:30:20;;;;;;;30.80;13.45;;;;;;;15.10;100.00;100728.28;12185269;19;20015;-78
2022/10/19 05:34:22;;;;;;;33.55;12.88;;;;;;;15.07;100.00;100727.94;12203570;19;20015;-78
2022/10/19 05:38:23;;;;;;;30.00;13.80;;;;;;;15.03;100.00;100720.16;12209556;19;20039;-78
2022/10/19 05:42:25;;;;;;;30.48;13.55;;;;;;;15.02;100.00;100718.47;12187087;19;20125;-78
2022/10/19 05:46:28;;;;;;;30.88;13.18;;;;;;;14.95;100.00;100717.81;12205585;19;20768;-79
2022/10/19 05:50:30;;;;;;;35.92;13.98;;;;;;;14.88;100.00;100708.84;12206269;19;20372;-78
2022/10/19 05:54:31;;;;;;;40.35;14.57;;;;;;;14.87;100.00;100714.63;12183329;19;20014;-78
2022/10/19 05:58:34;;;;;;;42.73;15.63;;;;;;;14.80;100.00;100715.66;12210821;19;20014;-80
2022/10/19 06:02:36;;;;;;;34.78;14.73;;;;;;;14.76;100.00;100719.22;12212806;19;20251;-79
2022/10/19 06:06:38;;;;;;;31.15;13.27;;;;;;;14.78;100.00;100711.47;12191022;19;20093;-80
2022/10/19 06:10:40;;;;;;;36.10;13.77;;;;;;;14.75;100.00;100720.28;12217514;19;20066;-82
2022/10/19 06:14:41;;;;;;;31.98;14.10;;;;;;;14.74;100.00;100722.22;12213405;19;20011;-79
2022/10/19 06:18:44;;;;;;;28.75;13.85;;;;;;;14.70;100.00;100728.56;12239449;19;20010;-80
2022/10/19 06:22:45;;;;;;;36.10;13.97;;;;;;;14.70;100.00;100725.78;12235548;19;20015;-79
2022/10/19 06:26:47;;;;;;;39.00;14.40;;;;;;;14.77;100.00;100734.75;12240447;19;20403;-81
2022/10/19 06:30:48;;;;;;;35.03;12.65;;;;;;;14.80;100.00;100739.78;12238011;19;20029;-80
2022/10/19 06:34:50;;;;;;;31.02;12.57;;;;;;;14.79;100.00;100735.34;12246795;19;20404;-79
2022/10/19 06:38:58;;;;;;;30.25;13.40;;;;;;;14.77;100.00;100738.38;12237760;19;20010;-79
2022/10/19 06:43:00;;;;;;;32.70;13.93;;;;;;;14.79;100.00;100741.75;12235947;19;20032;-79
2022/10/19 06:47:02;;;;;;;33.83;14.17;;;;;;;14.78;100.00;100748.38;12239594;19;20018;-80
2022/10/19 06:51:06;;;;;;;34.63;12.60;;;;;;;14.76;100.00;100733.09;12238245;19;20042;-79
2022/10/19 06:55:15;;;;;;;29.95;12.70;;;;;;;14.88;100.00;100730.22;12233379;19;20015;-79
2022/10/19 06:59:20;;;;;;;29.48;11.55;;;;;;;14.94;100.00;100732.78;12238210;19;20332;-79
2022/10/19 07:03:23;;;;;;;31.90;12.18;;;;;;;14.97;100.00;100737.81;12235544;19;20011;-79
2022/10/19 07:07:28;;;;;;;;;;;;;;;14.93;100.00;100735.81;12233253;19;20042;-79
2022/10/19 07:11:30;;;;;;;26.00;13.02;;;;;;;14.87;100.00;100737.66;12243370;19;20647;-80
2022/10/19 07:15:32;;;;;;;24.02;10.90;;;;;;;14.85;100.00;100745.44;12245236;19;20014;-78
2022/10/19 07:19:34;;;;;;;23.38;11.27;;;;;;;14.89;100.00;100754.06;12250437;19;20010;-79
2022/10/19 07:23:37;;;;;;;31.58;12.45;;;;;;;14.94;100.00;100748.59;12241757;19;20019;-78
2022/10/19 07:27:39;;;;;;;27.42;13.23;;;;;;;15.07;100.00;100751.00;12252120;19;20003;-79
2022/10/19 07:31:46;;;;;;;29.38;12.50;;;;;;;15.15;100.00;100755.28;12277573;19;20019;-79
2022/10/19 07:35:48;;;;;;;25.17;12.07;;;;;;;15.22;100.00;100765.06;12277934;19;20015;-79
2022/10/19 07:39:49;;;;;;;24.58;11.68;;;;;;;15.30;100.00;100765.75;12248254;19;20508;-80
2022/10/19 07:43:51;;;;;;;26.73;11.70;;;;;;;15.22;100.00;100767.03;12240503;19;20007;-80
2022/10/19 07:47:53;;;;;;;27.00;11.50;;;;;;;15.23;100.00;100760.38;12240115;19;20039;-80
2022/10/19 07:51:55;;;;;;;20.90;10.25;;;;;;;15.41;100.00;100764.78;12238803;19;20727;-80
2022/10/19 07:56:02;;;;;;;25.48;11.73;;;;;;;15.38;100.00;100770.84;12236213;19;20011;-80
2022/10/19 08:00:05;;;;;;;25.40;11.20;;;;;;;15.45;100.00;100774.25;12241033;19;20011;-80
2022/10/19 08:04:12;;;;;;;26.17;11.65;;;;;;;15.56;100.00;100766.91;12248898;19;20011;-80
2022/10/19 08:08:35;;;;;;;60.08;12.77;;;;;;;15.68;100.00;100770.41;12251530;19;20014;-81
2022/10/19 08:12:37;;;;;;;21.55;10.25;;;;;;;15.77;100.00;100768.00;12206487;19;20019;-80
2022/10/19 08:16:40;;;;;;;28.15;10.95;;;;;;;15.69;100.00;100767.34;12192475;19;20042;-81
2022/10/19 08:20:43;;;;;;;24.95;11.18;;;;;;;15.79;100.00;100765.78;12197346;19;20006;-80
2022/10/19 08:24:44;;;;;;;22.48;10.52;;;;;;;15.88;100.00;100765.09;12222051;19;20041;-80
2022/10/19 08:28:46;;;;;;;21.23;9.80;;;;;;;15.87;100.00;100760.59;12203996;19;20519;-80
2022/10/19 08:32:48;;;;;;;22.35;10.15;;;;;;;15.90;100.00;100759.25;12224211;19;20010;-79
2022/10/19 08:36:49;;;;;;;23.75;11.20;;;;;;;16.03;100.00;100753.28;12225502;19;20070;-84
2022/10/19 08:40:52;;;;;;;20.55;9.23;;;;;;;16.04;100.00;100757.72;12206483;19;20050;-80
2022/10/19 08:45:24;;;;;;;23.20;9.57;;;;;;;16.12;100.00;100748.03;12225611;19;20574;-79
2022/10/19 08:49:28;;;;;;;21.70;9.88;;;;;;;16.12;100.00;100737.78;12206504;19;20059;-79
2022/10/19 08:53:44;;;;;;;19.80;10.10;;;;;;;16.26;100.00;100737.34;12226042;19;20071;-79
2022/10/19 08:58:09;;;;;;;17.95;10.38;;;;;;;16.33;100.00;100735.16;12221764;19;20019;-80
2022/10/19 09:02:29;;;;;;;20.38;9.70;;;;;;;16.36;100.00;100735.50;12201910;19;20010;-79
2022/10/19 09:06:42;;;;;;;19.05;9.32;;;;;;;16.53;100.00;100734.50;12218172;19;20007;-80
2022/10/19 09:10:48;;;;;;;19.67;9.65;;;;;;;16.56;100.00;100723.66;12197739;19;20007;-80
2022/10/19 09:14:58;;;;;;;17.70;8.82;;;;;;;16.71;100.00;100720.13;12216898;19;20011;-79
2022/10/19 09:18:59;;;;;;;17.35;8.75;;;;;;;16.55;100.00;100712.81;12204344;19;20015;-80
2022/10/19 09:23:24;;;;;;;19.25;9.05;;;;;;;16.55;100.00;100713.66;12221733;19;20068;-79
2022/10/19 09:27:38;;;;;;;18.77;9.38;;;;;;;16.54;100.00;100717.53;12214141;19;20757;-79
2022/10/19 09:31:42;;;;;;;19.65;9.77;;;;;;;16.40;100.00;100711.59;12197889;19;20006;-81
2022/10/19 09:35:45;;;;;;;23.70;9.23;;;;;;;16.57;100.00;100708.66;12220596;19;20501;-80
2022/10/19 09:39:47;;;;;;;17.38;9.27;;;;;;;16.70;100.00;100706.50;12261481;19;20030;-80
2022/10/19 09:43:56;;;;;;;18.95;9.82;;;;;;;16.84;100.00;100710.53;12245263;19;20014;-80
2022/10/19 09:47:59;;;;;;;15.13;7.18;;;;;;;16.95;100.00;100717.81;12225604;19;20003;-80
2022/10/19 09:52:23;;;;;;;17.88;9.43;;;;;;;16.95;100.00;100716.97;12201132;19;20018;-81
2022/10/19 09:56:26;;;;;;;17.08;9.70;;;;;;;17.00;100.00;100719.78;12218601;19;20011;-80
2022/10/19 10:00:43;;;;;;;19.73;10.52;;;;;;;17.04;100.00;100713.44;12221055;19;20017;-81
2022/10/19 10:04:53;;;;;;;22.52;9.48;;;;;;;17.02;100.00;100717.59;12194015;19;20094;-78
2022/10/19 10:08:57;;;;;;;18.83;10.70;;;;;;;17.24;100.00;100720.19;12213647;19;20038;-79
2022/10/19 10:13:00;;;;;;;22.23;10.40;;;;;;;17.57;100.00;100721.69;12199590;19;20027;-79
2022/10/19 10:17:18;;;;;;;14.60;9.02;;;;;;;17.83;100.00;100717.03;12210798;19;20011;-79
2022/10/19 10:21:31;;;;;;;18.38;10.05;;;;;;;17.99;100.00;100721.53;12218307;19;20479;-79
2022/10/19 10:25:35;;;;;;;16.92;8.75;;;;;;;17.89;100.00;100726.25;12191695;19;20083;-79
2022/10/19 10:29:38;;;;;;;16.50;8.73;;;;;;;17.91;100.00;100724.03;12212035;19;20009;-79
2022/10/19 10:33:40;;;;;;;;;;;;;;;17.80;100.00;100716.75;12213832;19;20014;-79
2022/10/19 10:37:46;;;;;;;16.45;8.07;;;;;;;17.89;100.00;100723.47;12195491;19;19915;-78
2022/10/19 10:41:48;;;;;;;14.23;8.95;;;;;;;17.70;100.00;100723.97;12215757;19;20018;-78
2022/10/19 10:45:53;;;;;;;13.85;8.18;;;;;;;17.58;100.00;100719.72;12212516;19;20003;-79
2022/10/19 10:50:00;;;;;;;300.40;53.55;;;;;;;17.49;100.00;100717.50;12192184;19;20382;-79
2022/10/19 10:54:16;;;;;;;36.47;11.27;;;;;;;17.48;100.00;100717.75;12211616;19;20668;-79
2022/10/19 10:58:33;;;;;;;78.63;15.18;;;;;;;17.48;100.00;100707.44;12192752;19;20019;-80
2022/10/19 11:02:50;;;;;;;21.25;7.82;;;;;;;17.48;100.00;100701.03;12215365;19;20007;-79
2022/10/19 11:06:55;;;;;;;17.73;8.38;;;;;;;17.37;100.00;100700.19;12211496;19;20014;-79
2022/10/19 11:11:00;;;;;;;19.02;9.13;;;;;;;17.31;100.00;100699.34;12192204;19;20034;-79
2022/10/19 11:15:10;;;;;;;22.88;8.43;;;;;;;17.31;100.00;100690.97;12211911;19;20373;-78
2022/10/19 11:19:35;;;;;;;17.83;8.63;;;;;;;17.46;100.00;100686.53;12193201;19;20011;-79
2022/10/19 11:23:56;;;;;;;14.38;7.38;;;;;;;17.56;100.00;100680.19;12213810;19;20014;-78
2022/10/19 11:28:21;;;;;;;11.88;5.75;;;;;;;17.63;100.00;100666.81;12211637;19;20476;-79
2022/10/19 11:32:36;;;;;;;12.77;5.75;;;;;;;17.78;100.00;100672.44;12190349;19;20014;-79
2022/10/19 11:36:53;;;;;;;12.95;5.05;;;;;;;17.90;100.00;100659.06;12215580;19;20007;-83
2022/10/19 11:41:26;;;;;;;7.82;4.80;;;;;;;17.93;100.00;100661.28;12196481;19;20031;-80
2022/10/19 11:45:57;;;;;;;8.07;4.07;;;;;;;17.84;100.00;100642.59;12219888;19;20352;-79
2022/10/19 11:50:16;;;;;;;7.60;4.90;;;;;;;17.68;100.00;100641.72;12196335;19;20010;-79
2022/10/19 11:54:24;;;;;;;10.63;4.47;;;;;;;17.79;100.00;100631.44;12211333;19;20003;-78
2022/10/19 11:58:44;;;;;;;6.03;3.90;;;;;;;17.89;100.00;100628.69;12197261;19;20007;-78
2022/10/19 12:03:07;;;;;;;13.48;4.50;;;;;;;17.87;100.00;100628.94;12217877;19;19998;-78
2022/10/19 12:07:42;;;;;;;8.43;4.60;;;;;;;17.79;100.00;100626.72;12205120;19;20042;-80
2022/10/19 12:11:46;;;;;;;11.30;5.13;;;;;;;17.82;100.00;100628.09;12226924;19;20658;-80
2022/10/19 12:15:54;;;;;;;6.38;4.60;;;;;;;17.69;100.00;100621.94;12230387;19;20024;-79
2022/10/19 12:20:01;;;;;;;9.07;4.22;;;;;;;17.65;100.00;100612.47;12216701;19;20044;-79
2022/10/19 12:24:10;;;;;;;8.05;4.32;;;;;;;17.64;100.00;100619.16;12211908;19;20003;-79
2022/10/19 12:28:21;;;;;;;7.95;5.40;;;;;;;17.54;100.00;100613.56;12195456;19;20075;-80
2022/10/19 12:32:26;;;;;;;9.45;5.38;;;;;;;17.46;100.00;100611.31;12212310;19;20034;-79
2022/10/19 12:36:51;;;;;;;10.73;5.18;;;;;;;17.36;100.00;100606.56;12227662;19;20010;-79
2022/10/19 12:41:06;;;;;;;10.82;5.35;;;;;;;17.25;100.00;100600.16;12198718;19;20006;-80
2022/10/19 12:45:23;;;;;;;6.75;4.25;;;;;;;17.31;100.00;100598.19;12216711;19;20026;-79
2022/10/19 12:49:25;;;;;;;7.00;4.38;;;;;;;17.33;100.00;100603.50;12194569;19;20010;-80
2022/10/19 12:53:34;;;;;;;7.97;4.65;;;;;;;17.31;100.00;100592.63;12217555;19;20096;-80
2022/10/19 12:57:38;;;;;;;8.60;5.15;;;;;;;17.15;100.00;100593.72;12221633;19;20007;-78
2022/10/19 13:01:43;;;;;;;9.52;4.70;;;;;;;17.07;100.00;100597.84;12197475;19;20024;-80
2022/10/19 13:05:58;;;;;;;9.77;4.72;;;;;;;17.16;100.00;100595.38;12218498;19;20014;-80
2022/10/19 13:10:02;;;;;;;15.18;5.50;;;;;;;17.21;100.00;100589.81;12225275;19;20350;-79
2022/10/19 13:14:13;;;;;;;8.40;4.82;;;;;;;17.13;100.00;100579.22;12195102;19;20019;-79
2022/10/19 13:18:53;;;;;;;10.65;5.07;;;;;;;16.96;100.00;100580.31;12220885;19;20006;-79
2022/10/19 13:22:58;;;;;;;12.57;6.43;;;;;;;16.79;100.00;100568.53;12198016;19;20064;-80
2022/10/19 13:27:02;;;;;;;10.45;5.80;;;;;;;16.73;100.00;100561.25;12222416;19;20031;-79
2022/10/19 13:31:22;;;;;;;11.73;6.13;;;;;;;16.67;100.00;100554.00;12194411;19;20353;-80
2022/10/19 13:35:29;;;;;;;10.32;5.65;;;;;;;16.60;100.00;100543.97;12218882;19;20030;-79
2022/10/19 13:39:38;;;;;;;10.75;5.43;;;;;;;16.60;100.00;100540.34;12219483;19;20034;-80
2022/10/19 13:43:59;;;;;;;11.60;5.40;;;;;;;16.61;100.00;100533.66;12193432;19;20002;-81
2022/10/19 13:48:16;;;;;;;10.60;6.07;;;;;;;16.67;100.00;100528.94;12217080;19;20022;-79
2022/10/19 13:52:42;;;;;;;11.00;5.20;;;;;;;16.77;100.00;100524.28;12194186;19;20092;-80
2022/10/19 13:56:59;;;;;;;11.35;5.35;;;;;;;16.84;100.00;100522.09;12216029;19;20484;-78
2022/10/19 14:01:27;;;;;;;10.20;5.13;;;;;;;16.90;100.00;100513.75;12187954;19;20491;-78
2022/10/19 14:05:41;;;;;;;7.72;4.90;;;;;;;16.91;100.00;100524.59;12214972;19;20010;-80
2022/10/19 14:10:14;;;;;;;10.10;4.65;;;;;;;16.84;100.00;100522.09;12215925;19;20003;-81
2022/10/19 14:14:19;;;;;;;15.88;5.15;;;;;;;16.87;100.00;100512.34;12188433;19;20010;-79
2022/10/19 14:18:27;;;;;;;9.40;4.97;;;;;;;16.82;100.00;100512.31;12220192;19;20014;-82
2022/10/19 14:22:35;;;;;;;8.95;4.50;;;;;;;16.66;100.00;100518.91;12195381;19;20014;-81
2022/10/19 14:26:36;;;;;;;8.13;3.58;;;;;;;16.45;100.00;100513.28;12215531;19;20135;-80
2022/10/19 14:30:38;;;;;;;10.52;4.43;;;;;;;16.38;100.00;100509.91;12213862;19;20007;-79
2022/10/19 14:34:42;;;;;;;10.85;4.50;;;;;;;16.36;100.00;100507.41;12190040;19;20010;-79
2022/10/19 14:38:45;;;;;;;8.10;4.45;;;;;;;16.46;100.00;100514.13;12218540;19;20003;-81
2022/10/19 14:42:47;;;;;;;12.27;4.93;;;;;;;16.34;100.00;100512.41;12213257;19;20028;-80
2022/10/19 14:46:49;;;;;;;8.10;4.23;;;;;;;16.26;100.00;100512.91;12197423;19;20014;-79
2022/10/19 14:50:56;;;;;;;19.42;5.32;;;;;;;16.09;100.00;100498.34;12211732;19;20076;-80
2022/10/19 14:55:01;;;;;;;10.45;4.90;;;;;;;16.12;100.00;100486.69;12213006;19;20468;-80
2022/10/19 14:59:14;;;;;;;7.75;3.90;;;;;;;15.95;100.00;100476.63;12196011;19;20002;-81
2022/10/19 15:03:25;;;;;;;;;;;;;;;15.83;100.00;100484.34;12228907;19;20076;-81
2022/10/19 15:07:39;;;;;;;8.55;4.55;;;;;;;15.82;100.00;100470.69;12238305;19;19923;-80
2022/10/19 15:11:45;;;;;;;11.82;4.63;;;;;;;15.74;100.00;100463.72;12274394;19;20019;-77
2022/10/19 15:15:50;;;;;;;6.78;4.00;;;;;;;15.69;100.00;100463.69;12274674;19;20050;-80
2022/10/19 15:19:54;;;;;;;8.50;3.90;;;;;;;15.63;100.00;100462.78;12217404;19;20010;-81
2022/10/19 15:24:20;;;;;;;9.05;4.43;;;;;;;15.69;100.00;100463.69;12226029;19;20002;-81
2022/10/19 15:28:38;;;;;;;7.93;4.10;;;;;;;15.69;100.00;100453.38;12203798;19;20467;-81
2022/10/19 15:32:47;;;;;;;7.90;4.35;;;;;;;15.69;100.00;100450.63;12217294;19;20078;-81
2022/10/19 15:36:54;;;;;;;8.00;5.10;;;;;;;15.71;100.00;100447.59;12226412;19;19999;-80
2022/10/19 15:40:58;;;;;;;16.52;4.45;;;;;;;15.66;100.00;100444.72;12205469;19;20103;-82
2022/10/19 15:45:01;;;;;;;10.98;5.32;;;;;;;15.45;100.00;100440.97;12225085;19;20476;-80
2022/10/19 15:49:45;;;;;;;8.73;5.13;;;;;;;15.37;100.00;100445.06;12211369;19;20091;-80
2022/10/19 15:53:47;;;;;;;11.07;4.03;;;;;;;15.45;100.00;100444.59;12223243;19;20389;-82
2022/10/19 15:57:57;;;;;;;7.60;4.50;;;;;;;15.39;100.00;100428.16;12225311;19;20010;-82
2022/10/19 16:01:59;;;;;;;8.50;4.28;;;;;;;15.32;100.00;100427.53;12203691;19;20006;-82
2022/10/19 16:06:01;;;;;;;11.75;6.00;;;;;;;15.19;100.00;100429.66;12223073;19;20010;-80
2022/10/19 16:10:03;;;;;;;8.50;5.07;;;;;;;15.17;100.00;100417.16;12207326;19;20007;-81
2022/10/19 16:14:05;;;;;;;11.05;5.45;;;;;;;15.10;100.00;100405.44;12222793;19;20070;-81
2022/10/19 16:18:08;;;;;;;11.05;5.72;;;;;;;14.99;100.00;100401.75;12226046;19;20015;-81
2022/10/19 16:22:11;;;;;;;9.65;5.60;;;;;;;14.88;100.00;100414.72;12201260;19;20014;-81
2022/10/19 16:26:15;;;;;;;13.93;6.18;;;;;;;14.80;100.00;100420.72;12227842;19;20013;-82
2022/10/19 16:30:17;;;;;;;11.88;5.82;;;;;;;14.59;100.00;100403.88;12229645;19;20030;-81
2022/10/19 16:34:19;;;;;;;12.25;5.47;;;;;;;14.53;100.00;100404.09;12202245;19;20015;-80
2022/10/19 16:38:20;;;;;;;11.68;6.28;;;;;;;14.39;100.00;100402.81;12228375;19;20407;-82
2022/10/19 16:42:24;;;;;;;15.85;7.22;;;;;;;14.30;100.00;100410.75;12227162;19;20014;-82
2022/10/19 16:46:31;;;;;;;14.68;7.30;;;;;;;14.23;100.00;100404.56;12204975;19;20698;-81
2022/10/19 16:50:32;;;;;;;16.35;7.55;;;;;;;14.09;100.00;100410.50;12242032;19;20036;-84
2022/10/19 16:54:34;;;;;;;12.65;7.03;;;;;;;14.07;100.00;100411.88;12259526;19;20011;-83
2022/10/19 16:58:36;;;;;;;15.43;6.90;;;;;;;13.97;100.00;100404.25;12250846;19;20023;-83
2022/10/19 17:02:38;;;;;;;15.97;7.60;;;;;;;13.90;100.00;100406.41;12270540;19;19995;-83
2022/10/19 17:06:45;;;;;;;13.90;7.82;;;;;;;13.88;100.00;100414.13;12268959;19;20010;-82
2022/10/19 17:10:47;;;;;;;;;;;;;;;13.81;100.00;100410.72;12239401;19;20058;-83
2022/10/19 17:14:50;;;;;;;15.48;7.60;;;;;;;13.85;100.00;100414.63;12256439;19;19915;-83
2022/10/19 17:18:57;;;;;;;17.23;8.77;;;;;;;13.88;100.00;100414.94;12267737;19;20010;-83
2022/10/19 17:22:59;;;;;;;17.83;9.73;;;;;;;13.94;100.00;100409.47;12244081;19;20019;-83
2022/10/19 17:27:03;;;;;;;16.30;8.55;;;;;;;13.98;100.00;100403.19;12267103;19;20010;-82
2022/10/19 17:31:13;;;;;;;20.40;9.77;;;;;;;13.95;100.00;100398.16;12245317;19;20018;-81
2022/10/19 17:35:14;;;;;;;19.98;11.32;;;;;;;13.84;100.00;100397.19;12259595;19;20015;-82
2022/10/19 17:39:18;;;;;;;19.45;11.02;;;;;;;13.74;100.00;100408.13;12259006;19;20340;-82
2022/10/19 17:43:23;;;;;;;17.05;9.25;;;;;;;13.67;100.00;100408.31;12209541;19;20083;-78
2022/10/19 17:47:25;;;;;;;22.55;10.57;;;;;;;13.59;100.00;100410.66;12218264;19;20030;-82
2022/10/19 17:51:29;;;;;;;18.13;9.52;;;;;;;13.53;100.00;100397.84;12218372;19;20014;-82
2022/10/19 17:55:32;;;;;;;17.00;9.65;;;;;;;13.47;100.00;100398.88;12196116;19;20006;-79
2022/10/19 17:59:34;;;;;;;17.85;10.02;;;;;;;13.42;100.00;100392.19;12219592;19;20011;-82
2022/10/19 18:03:54;;;;;;;18.35;9.68;;;;;;;13.37;100.00;100381.03;12217690;19;20031;-80
2022/10/19 18:07:55;;;;;;;18.37;10.40;;;;;;;13.33;100.00;100373.50;12192638;19;20010;-82
2022/10/19 18:11:57;;;;;;;22.23;9.70;;;;;;;13.28;100.00;100379.78;12212766;19;20345;-82
2022/10/19 18:16:08;;;;;;;18.30;10.80;;;;;;;13.27;100.00;100377.28;12204734;19;20392;-80
2022/10/19 18:20:11;;;;;;;20.52;11.82;;;;;;;13.23;100.00;100372.19;12218483;19;20006;-82
2022/10/19 18:24:18;;;;;;;22.17;10.77;;;;;;;13.22;100.00;100384.38;12215310;19;20007;-81
2022/10/19 18:28:20;;;;;;;18.38;9.77;;;;;;;13.19;100.00;100395.09;12201519;19;20014;-81
2022/10/19 18:32:22;;;;;;;23.63;10.83;;;;;;;13.13;100.00;100398.88;12211594;19;20014;-81